createdAt,value
2018-09-23T00:00:33.393Z,17.10
2018-09-23T00:01:35.566Z,17.10
2018-09-23T00:02:37.994Z,17.10
2018-09-23T00:03:40.297Z,17.10
2018-09-23T00:04:42.458Z,17.10
2018-09-23T00:05:44.609Z,17.10
2018-09-23T00:06:46.766Z,17.10
2018-09-23T00:07:48.969Z,17.00
2018-09-23T00:08:51.120Z,17.00
2018-09-23T00:09:53.271Z,17.00
2018-09-23T00:10:55.680Z,17.00
2018-09-23T00:11:58.329Z,17.00
2018-09-23T00:13:00.468Z,17.00
2018-09-23T00:14:02.617Z,16.90
2018-09-23T00:15:04.769Z,17.10
2018-09-23T00:16:07.146Z,16.90
2018-09-23T00:17:09.298Z,16.90
2018-09-23T00:18:11.474Z,17.00
2018-09-23T00:19:13.875Z,16.90
2018-09-23T00:20:16.062Z,16.90
2018-09-23T00:21:18.193Z,16.80
2018-09-23T00:22:20.421Z,16.70
2018-09-23T00:23:22.494Z,16.60
2018-09-23T00:24:24.616Z,16.70
2018-09-23T00:25:26.734Z,16.70
2018-09-23T00:26:29.374Z,16.60
2018-09-23T00:27:31.544Z,16.60
2018-09-23T00:28:33.717Z,16.60
2018-09-23T00:29:41.466Z,16.60
2018-09-23T00:30:43.622Z,16.60
2018-09-23T00:31:45.782Z,16.60
2018-09-23T00:32:47.955Z,16.60
2018-09-23T00:33:50.098Z,16.70
2018-09-23T00:34:52.272Z,16.70
2018-09-23T00:35:54.397Z,16.70
2018-09-23T00:36:56.570Z,16.70
2018-09-23T00:37:58.702Z,16.70
2018-09-23T00:39:00.825Z,16.70
2018-09-23T00:40:03.212Z,16.70
2018-09-23T00:41:05.362Z,16.80
2018-09-23T00:42:07.514Z,16.70
2018-09-23T00:43:09.693Z,16.80
2018-09-23T00:44:11.804Z,16.70
2018-09-23T00:45:14.029Z,16.80
2018-09-23T00:46:16.163Z,16.70
2018-09-23T00:47:18.322Z,16.70
2018-09-23T00:48:20.466Z,16.70
2018-09-23T00:49:22.648Z,16.70
2018-09-23T00:50:24.805Z,16.70
2018-09-23T00:51:26.936Z,16.60
2018-09-23T00:52:29.066Z,16.50
2018-09-23T00:53:31.186Z,16.50
2018-09-23T00:54:33.335Z,16.60
2018-09-23T00:55:35.522Z,16.50
2018-09-23T00:56:38.072Z,16.50
2018-09-23T00:57:40.229Z,16.50
2018-09-23T00:58:42.814Z,16.50
2018-09-23T00:59:45.004Z,16.40
2018-09-23T01:00:47.165Z,16.40
2018-09-23T01:01:49.296Z,16.30
2018-09-23T01:02:51.419Z,16.30
2018-09-23T01:03:53.577Z,16.30
2018-09-23T01:04:56.033Z,16.30
2018-09-23T01:05:58.173Z,16.30
2018-09-23T01:07:00.330Z,16.30
2018-09-23T01:08:02.501Z,16.20
2018-09-23T01:09:06.625Z,16.20
2018-09-23T01:10:14.927Z,16.20
2018-09-23T01:11:17.089Z,16.20
2018-09-23T01:12:19.253Z,16.20
2018-09-23T01:13:21.916Z,16.10
2018-09-23T01:14:24.049Z,16.10
2018-09-23T01:15:26.170Z,16.10
2018-09-23T01:16:28.339Z,16.10
2018-09-23T01:17:30.477Z,16.10
2018-09-23T01:18:32.594Z,16.20
2018-09-23T01:19:34.753Z,16.20
2018-09-23T01:20:37.286Z,16.20
2018-09-23T01:21:39.549Z,16.10
2018-09-23T01:22:41.690Z,16.20
2018-09-23T01:23:44.099Z,16.10
2018-09-23T01:24:46.428Z,16.10
2018-09-23T01:25:48.816Z,16.00
2018-09-23T01:26:51.010Z,16.00
2018-09-23T01:27:53.413Z,16.10
2018-09-23T01:28:55.529Z,16.10
2018-09-23T01:29:57.938Z,16.10
2018-09-23T01:31:00.133Z,16.10
2018-09-23T01:32:02.276Z,16.10
2018-09-23T01:33:04.421Z,16.00
2018-09-23T01:34:06.572Z,15.90
2018-09-23T01:35:08.733Z,15.90
2018-09-23T01:36:10.879Z,15.90
2018-09-23T01:37:13.304Z,15.90
2018-09-23T01:38:15.430Z,15.90
2018-09-23T01:39:17.594Z,15.90
2018-09-23T01:40:19.723Z,15.80
2018-09-23T01:41:21.881Z,15.80
2018-09-23T01:42:24.036Z,15.90
2018-09-23T01:43:26.149Z,15.90
2018-09-23T01:44:28.257Z,15.90
2018-09-23T01:45:30.382Z,15.80
2018-09-23T01:46:32.589Z,15.80
2018-09-23T01:47:34.724Z,15.80
2018-09-23T01:48:36.867Z,15.80
2018-09-23T01:49:39.354Z,15.90
2018-09-23T01:50:41.526Z,15.90
2018-09-23T01:51:43.702Z,15.80
2018-09-23T01:52:45.835Z,15.80
2018-09-23T01:53:48.197Z,15.70
2018-09-23T01:54:50.607Z,15.80
2018-09-23T01:55:52.754Z,15.80
2018-09-23T01:56:55.113Z,15.70
2018-09-23T01:57:57.561Z,15.70
2018-09-23T01:58:59.685Z,15.60
2018-09-23T02:00:01.807Z,15.60
2018-09-23T02:01:03.981Z,15.60
2018-09-23T02:02:06.389Z,15.60
2018-09-23T02:03:08.532Z,15.70
2018-09-23T02:04:10.662Z,15.70
2018-09-23T02:05:12.808Z,15.70
2018-09-23T02:06:14.973Z,15.70
2018-09-23T02:07:17.106Z,15.70
2018-09-23T02:08:19.225Z,15.60
2018-09-23T02:09:21.370Z,15.60
2018-09-23T02:10:23.495Z,15.60
2018-09-23T02:11:25.618Z,15.50
2018-09-23T02:12:27.761Z,15.50
2018-09-23T02:13:29.889Z,15.50
2018-09-23T02:14:32.017Z,15.50
2018-09-23T02:15:34.366Z,15.40
2018-09-23T02:16:36.541Z,15.40
2018-09-23T02:17:38.697Z,15.50
2018-09-23T02:18:40.803Z,15.50
2018-09-23T02:19:43.213Z,15.60
2018-09-23T02:20:45.352Z,15.60
2018-09-23T02:21:47.559Z,15.50
2018-09-23T02:22:49.791Z,15.60
2018-09-23T02:23:51.923Z,15.60
2018-09-23T02:24:54.055Z,15.60
2018-09-23T02:25:56.169Z,15.60
2018-09-23T02:26:58.318Z,15.50
2018-09-23T02:28:00.450Z,15.50
2018-09-23T02:29:02.573Z,15.60
2018-09-23T02:30:05.120Z,15.60
2018-09-23T02:31:07.323Z,15.60
2018-09-23T02:32:09.505Z,15.60
2018-09-23T02:33:11.651Z,15.70
2018-09-23T02:34:13.875Z,15.70
2018-09-23T02:35:15.992Z,15.70
2018-09-23T02:36:18.131Z,15.70
2018-09-23T02:37:20.276Z,15.70
2018-09-23T02:38:22.440Z,15.70
2018-09-23T02:39:24.566Z,15.70
2018-09-23T02:40:26.689Z,15.70
2018-09-23T02:41:28.817Z,15.60
2018-09-23T02:42:30.955Z,15.70
2018-09-23T02:43:33.129Z,15.70
2018-09-23T02:44:35.270Z,15.70
2018-09-23T02:45:37.409Z,15.80
2018-09-23T02:46:39.556Z,15.80
2018-09-23T02:47:41.710Z,15.80
2018-09-23T02:48:43.903Z,15.80
2018-09-23T02:49:46.094Z,15.80
2018-09-23T02:50:48.252Z,15.90
2018-09-23T02:51:50.581Z,15.80
2018-09-23T02:52:53.178Z,15.90
2018-09-23T02:53:55.642Z,15.90
2018-09-23T02:54:58.087Z,15.70
2018-09-23T02:56:00.242Z,16.00
2018-09-23T02:57:02.372Z,15.90
2018-09-23T02:58:04.781Z,15.90
2018-09-23T02:59:06.927Z,15.90
2018-09-23T03:00:09.130Z,15.90
2018-09-23T03:01:11.257Z,15.90
2018-09-23T03:02:13.411Z,15.90
2018-09-23T03:03:15.615Z,16.00
2018-09-23T03:04:17.980Z,15.90
2018-09-23T03:05:20.127Z,15.90
2018-09-23T03:06:28.994Z,16.00
2018-09-23T03:07:31.445Z,16.00
2018-09-23T03:08:33.569Z,15.90
2018-09-23T03:09:35.706Z,15.90
2018-09-23T03:10:37.898Z,15.90
2018-09-23T03:11:40.041Z,15.90
2018-09-23T03:12:42.199Z,15.90
2018-09-23T03:13:44.385Z,15.90
2018-09-23T03:14:46.548Z,15.80
2018-09-23T03:15:48.826Z,15.80
2018-09-23T03:16:50.988Z,15.80
2018-09-23T03:17:53.267Z,15.80
2018-09-23T03:18:55.414Z,15.80
2018-09-23T03:19:57.789Z,15.90
2018-09-23T03:20:59.933Z,15.90
2018-09-23T03:22:02.284Z,15.90
2018-09-23T03:23:04.432Z,15.90
2018-09-23T03:24:06.592Z,15.90
2018-09-23T03:25:08.770Z,15.90
2018-09-23T03:26:10.906Z,15.90
2018-09-23T03:27:13.052Z,15.90
2018-09-23T03:28:15.208Z,15.80
2018-09-23T03:29:17.339Z,15.80
2018-09-23T03:30:19.465Z,15.80
2018-09-23T03:31:21.594Z,15.80
2018-09-23T03:32:24.028Z,15.80
2018-09-23T03:33:26.157Z,15.80
2018-09-23T03:34:28.625Z,15.80
2018-09-23T03:35:30.751Z,15.80
2018-09-23T03:36:32.891Z,15.90
2018-09-23T03:37:35.022Z,15.90
2018-09-23T03:38:37.418Z,15.80
2018-09-23T03:39:39.777Z,15.80
2018-09-23T03:40:41.985Z,15.70
2018-09-23T03:41:44.128Z,15.70
2018-09-23T03:42:46.361Z,15.70
2018-09-23T03:43:48.501Z,15.70
2018-09-23T03:44:50.657Z,15.60
2018-09-23T03:45:53.049Z,15.70
2018-09-23T03:46:55.257Z,15.70
2018-09-23T03:48:01.826Z,15.60
2018-09-23T03:49:04.023Z,15.60
2018-09-23T03:50:06.188Z,15.60
2018-09-23T03:51:08.366Z,15.60
2018-09-23T03:52:10.497Z,15.60
2018-09-23T03:53:12.626Z,15.60
2018-09-23T03:54:15.494Z,15.60
2018-09-23T03:55:17.625Z,15.60
2018-09-23T03:56:19.786Z,15.60
2018-09-23T03:57:21.925Z,15.60
2018-09-23T03:58:24.051Z,15.60
2018-09-23T03:59:26.417Z,15.60
2018-09-23T04:00:28.563Z,15.60
2018-09-23T04:01:30.721Z,15.60
2018-09-23T04:02:33.266Z,15.60
2018-09-23T04:03:35.434Z,15.60
2018-09-23T04:04:37.985Z,15.80
2018-09-23T04:05:40.126Z,15.70
2018-09-23T04:06:42.362Z,15.70
2018-09-23T04:07:44.490Z,15.70
2018-09-23T04:08:46.680Z,15.70
2018-09-23T04:09:48.805Z,15.80
2018-09-23T04:10:50.944Z,15.80
2018-09-23T04:11:53.091Z,15.80
2018-09-23T04:12:55.219Z,15.80
2018-09-23T04:13:57.526Z,15.70
2018-09-23T04:14:59.690Z,15.80
2018-09-23T04:16:02.101Z,15.80
2018-09-23T04:17:04.601Z,15.80
2018-09-23T04:18:06.867Z,15.80
2018-09-23T04:19:09.082Z,15.80
2018-09-23T04:20:11.240Z,15.90
2018-09-23T04:21:13.658Z,15.80
2018-09-23T04:22:15.816Z,15.80
2018-09-23T04:23:18.063Z,15.80
2018-09-23T04:24:20.230Z,15.80
2018-09-23T04:25:22.494Z,15.80
2018-09-23T04:26:24.650Z,15.80
2018-09-23T04:27:26.805Z,15.80
2018-09-23T04:28:28.966Z,15.90
2018-09-23T04:29:31.176Z,15.90
2018-09-23T04:30:33.330Z,15.90
2018-09-23T04:31:35.498Z,16.00
2018-09-23T04:32:37.650Z,16.00
2018-09-23T04:33:39.811Z,16.00
2018-09-23T04:34:41.962Z,16.00
2018-09-23T04:35:44.122Z,16.00
2018-09-23T04:36:46.264Z,16.10
2018-09-23T04:37:48.419Z,16.10
2018-09-23T04:38:50.574Z,16.10
2018-09-23T04:39:52.995Z,16.10
2018-09-23T04:40:55.150Z,16.20
2018-09-23T04:41:57.343Z,16.10
2018-09-23T04:42:59.692Z,16.20
2018-09-23T04:44:02.161Z,16.10
2018-09-23T04:45:04.370Z,16.20
2018-09-23T04:46:06.495Z,16.20
2018-09-23T04:47:08.688Z,16.20
2018-09-23T04:48:10.838Z,16.20
2018-09-23T04:49:12.998Z,16.20
2018-09-23T04:50:15.160Z,16.20
2018-09-23T04:51:17.312Z,16.20
2018-09-23T04:52:19.434Z,16.20
2018-09-23T04:53:21.856Z,16.20
2018-09-23T04:54:24.001Z,16.30
2018-09-23T04:55:26.183Z,16.30
2018-09-23T04:56:28.318Z,16.30
2018-09-23T04:57:30.477Z,16.30
2018-09-23T04:58:32.638Z,16.30
2018-09-23T04:59:34.988Z,16.30
2018-09-23T05:00:37.138Z,16.40
2018-09-23T05:01:39.278Z,16.40
2018-09-23T05:02:41.423Z,16.40
2018-09-23T05:03:43.549Z,16.50
2018-09-23T05:04:45.737Z,16.50
2018-09-23T05:05:47.910Z,16.50
2018-09-23T05:06:50.054Z,16.50
2018-09-23T05:07:52.477Z,16.50
2018-09-23T05:08:54.617Z,16.60
2018-09-23T05:09:56.746Z,16.60
2018-09-23T05:10:58.886Z,16.60
2018-09-23T05:12:01.203Z,16.70
2018-09-23T05:13:03.365Z,16.70
2018-09-23T05:14:05.893Z,16.70
2018-09-23T05:15:08.305Z,16.70
2018-09-23T05:16:10.447Z,16.80
2018-09-23T05:17:12.628Z,16.80
2018-09-23T05:18:14.842Z,16.80
2018-09-23T05:19:16.986Z,16.80
2018-09-23T05:20:19.521Z,16.80
2018-09-23T05:21:22.049Z,16.90
2018-09-23T05:22:24.558Z,16.90
2018-09-23T05:23:26.734Z,16.90
2018-09-23T05:24:29.126Z,16.90
2018-09-23T05:25:31.289Z,16.90
2018-09-23T05:26:33.423Z,16.80
2018-09-23T05:27:35.550Z,17.00
2018-09-23T05:28:37.933Z,17.00
2018-09-23T05:29:40.053Z,17.00
2018-09-23T05:30:42.192Z,17.00
2018-09-23T05:31:44.362Z,17.00
2018-09-23T05:32:46.513Z,17.10
2018-09-23T05:33:48.669Z,17.10
2018-09-23T05:34:50.817Z,17.10
2018-09-23T05:35:53.004Z,17.10
2018-09-23T05:36:55.157Z,17.10
2018-09-23T05:37:57.293Z,17.10
2018-09-23T05:38:59.433Z,17.20
2018-09-23T05:40:02.008Z,17.20
2018-09-23T05:41:04.421Z,17.20
2018-09-23T05:42:06.612Z,17.20
2018-09-23T05:43:08.872Z,17.20
2018-09-23T05:44:10.997Z,17.30
2018-09-23T05:45:13.155Z,17.30
2018-09-23T05:46:15.339Z,17.30
2018-09-23T05:47:17.506Z,17.30
2018-09-23T05:48:19.645Z,17.30
2018-09-23T05:49:28.498Z,17.30
2018-09-23T05:50:30.674Z,17.30
2018-09-23T05:51:33.202Z,17.40
2018-09-23T05:52:35.374Z,17.40
2018-09-23T05:53:37.560Z,17.40
2018-09-23T05:54:39.729Z,17.40
2018-09-23T05:55:41.891Z,17.40
2018-09-23T05:56:44.067Z,17.40
2018-09-23T05:57:46.258Z,17.40
2018-09-23T05:58:48.430Z,17.50
2018-09-23T05:59:50.805Z,17.50
2018-09-23T06:00:54.274Z,17.50
2018-09-23T06:01:56.475Z,17.50
2018-09-23T06:02:58.919Z,17.60
2018-09-23T06:04:01.096Z,17.60
2018-09-23T06:05:03.278Z,17.60
2018-09-23T06:06:05.598Z,17.60
2018-09-23T06:07:07.783Z,17.50
2018-09-23T06:08:09.930Z,17.60
2018-09-23T06:09:12.055Z,17.70
2018-09-23T06:10:14.246Z,17.70
2018-09-23T06:11:16.464Z,17.70
2018-09-23T06:12:18.606Z,17.70
2018-09-23T06:13:20.982Z,17.70
2018-09-23T06:14:23.143Z,17.70
2018-09-23T06:15:25.281Z,17.80
2018-09-23T06:16:27.414Z,17.80
2018-09-23T06:17:29.558Z,17.80
2018-09-23T06:18:32.024Z,17.80
2018-09-23T06:19:34.086Z,17.90
2018-09-23T06:20:36.291Z,17.90
2018-09-23T06:21:38.418Z,17.90
2018-09-23T06:22:40.554Z,17.90
2018-09-23T06:23:42.686Z,17.90
2018-09-23T06:24:44.820Z,17.90
2018-09-23T06:25:47.281Z,18.00
2018-09-23T06:26:49.444Z,18.00
2018-09-23T06:27:51.581Z,17.90
2018-09-23T06:28:53.705Z,18.00
2018-09-23T06:29:55.841Z,18.00
2018-09-23T06:30:57.969Z,18.00
2018-09-23T06:32:00.110Z,18.10
2018-09-23T06:33:02.280Z,18.10
2018-09-23T06:34:04.705Z,18.10
2018-09-23T06:35:06.878Z,18.10
2018-09-23T06:36:09.013Z,18.10
2018-09-23T06:37:11.212Z,18.20
2018-09-23T06:38:13.343Z,18.10
2018-09-23T06:39:15.497Z,18.20
2018-09-23T06:40:17.702Z,18.20
2018-09-23T06:41:19.854Z,18.30
2018-09-23T06:42:22.043Z,18.30
2018-09-23T06:43:24.200Z,18.30
2018-09-23T06:44:26.414Z,18.30
2018-09-23T06:45:28.635Z,18.40
2018-09-23T06:46:31.035Z,18.30
2018-09-23T06:47:33.477Z,18.40
2018-09-23T06:48:35.651Z,18.40
2018-09-23T06:49:37.798Z,18.40
2018-09-23T06:50:39.967Z,18.40
2018-09-23T06:51:42.139Z,18.50
2018-09-23T06:52:44.406Z,18.60
2018-09-23T06:53:46.616Z,18.60
2018-09-23T06:54:48.777Z,18.60
2018-09-23T06:55:50.966Z,18.70
2018-09-23T06:56:53.233Z,18.70
2018-09-23T06:57:55.372Z,18.70
2018-09-23T06:58:57.630Z,18.70
2018-09-23T06:59:59.849Z,18.80
2018-09-23T07:01:02.006Z,18.80
2018-09-23T07:02:04.164Z,18.80
2018-09-23T07:03:06.651Z,18.90
2018-09-23T07:04:08.853Z,18.90
2018-09-23T07:05:11.302Z,18.90
2018-09-23T07:06:13.506Z,18.90
2018-09-23T07:07:15.697Z,18.90
2018-09-23T07:08:17.875Z,19.00
2018-09-23T07:09:20.030Z,19.00
2018-09-23T07:10:22.195Z,19.00
2018-09-23T07:11:24.296Z,19.00
2018-09-23T07:12:26.780Z,19.00
2018-09-23T07:13:28.925Z,19.00
2018-09-23T07:14:31.122Z,19.10
2018-09-23T07:15:33.286Z,19.10
2018-09-23T07:16:35.506Z,19.20
2018-09-23T07:17:38.015Z,19.20
2018-09-23T07:18:40.218Z,19.20
2018-09-23T07:19:42.398Z,19.20
2018-09-23T07:20:44.589Z,19.30
2018-09-23T07:21:46.733Z,19.30
2018-09-23T07:22:48.921Z,19.40
2018-09-23T07:23:51.252Z,19.40
2018-09-23T07:24:53.278Z,19.50
2018-09-23T07:25:55.590Z,19.40
2018-09-23T07:26:57.721Z,19.50
2018-09-23T07:27:59.873Z,19.50
2018-09-23T07:29:02.093Z,19.60
2018-09-23T07:30:04.563Z,19.60
2018-09-23T07:31:07.574Z,19.60
2018-09-23T07:32:09.974Z,19.70
2018-09-23T07:33:12.161Z,19.70
2018-09-23T07:34:14.345Z,19.80
2018-09-23T07:35:16.503Z,19.80
2018-09-23T07:36:18.642Z,19.80
2018-09-23T07:37:20.831Z,19.80
2018-09-23T07:38:23.105Z,19.80
2018-09-23T07:39:25.508Z,19.90
2018-09-23T07:40:27.993Z,19.70
2018-09-23T07:41:30.121Z,19.90
2018-09-23T07:42:32.245Z,20.00
2018-09-23T07:43:34.417Z,20.00
2018-09-23T07:44:36.650Z,20.00
2018-09-23T07:45:39.555Z,20.00
2018-09-23T07:46:41.844Z,20.10
2018-09-23T07:47:43.992Z,20.10
2018-09-23T07:48:46.182Z,20.20
2018-09-23T07:49:48.326Z,20.10
2018-09-23T07:50:50.470Z,20.10
2018-09-23T07:51:52.638Z,20.10
2018-09-23T07:52:54.769Z,20.10
2018-09-23T07:53:56.924Z,20.20
2018-09-23T07:54:59.053Z,20.30
2018-09-23T07:56:01.483Z,20.30
2018-09-23T07:57:03.574Z,20.30
2018-09-23T07:58:05.705Z,20.30
2018-09-23T07:59:08.068Z,20.30
2018-09-23T08:00:10.914Z,20.30
2018-09-23T08:01:13.056Z,20.30
2018-09-23T08:02:15.198Z,20.40
2018-09-23T08:03:17.414Z,20.40
2018-09-23T08:04:19.588Z,20.40
2018-09-23T08:05:21.699Z,20.50
2018-09-23T08:06:24.066Z,20.50
2018-09-23T08:07:26.211Z,20.50
2018-09-23T08:08:28.375Z,20.50
2018-09-23T08:09:30.509Z,20.50
2018-09-23T08:10:32.697Z,20.50
2018-09-23T08:11:34.862Z,20.60
2018-09-23T08:12:37.365Z,20.60
2018-09-23T08:13:39.555Z,20.60
2018-09-23T08:14:41.916Z,20.60
2018-09-23T08:15:43.761Z,20.60
2018-09-23T08:16:45.914Z,20.60
2018-09-23T08:17:48.074Z,20.70
2018-09-23T08:18:50.260Z,20.60
2018-09-23T08:19:52.593Z,20.60
2018-09-23T08:20:54.607Z,20.60
2018-09-23T08:21:56.745Z,20.60
2018-09-23T08:22:58.902Z,20.60
2018-09-23T08:24:01.084Z,20.60
2018-09-23T08:25:03.468Z,20.60
2018-09-23T08:26:05.582Z,20.60
2018-09-23T08:27:07.979Z,20.50
2018-09-23T08:28:10.130Z,20.50
2018-09-23T08:29:12.681Z,20.50
2018-09-23T08:30:14.907Z,20.50
2018-09-23T08:31:17.257Z,20.50
2018-09-23T08:32:19.428Z,20.50
2018-09-23T08:33:21.582Z,20.50
2018-09-23T08:34:24.046Z,20.40
2018-09-23T08:35:26.696Z,20.50
2018-09-23T08:36:28.949Z,20.60
2018-09-23T08:37:31.186Z,20.50
2018-09-23T08:38:33.293Z,20.50
2018-09-23T08:39:35.457Z,20.60
2018-09-23T08:40:37.628Z,20.60
2018-09-23T08:41:39.800Z,20.60
2018-09-23T08:42:41.986Z,20.60
2018-09-23T08:43:44.089Z,20.60
2018-09-23T08:44:46.277Z,20.70
2018-09-23T08:45:48.830Z,20.70
2018-09-23T08:46:50.993Z,20.80
2018-09-23T08:47:53.484Z,20.80
2018-09-23T08:48:55.874Z,20.80
2018-09-23T08:49:58.033Z,20.90
2018-09-23T08:51:00.166Z,20.90
2018-09-23T08:52:02.406Z,20.90
2018-09-23T08:53:04.859Z,21.00
2018-09-23T08:54:07.024Z,21.00
2018-09-23T08:55:09.277Z,21.00
2018-09-23T08:56:11.424Z,21.00
2018-09-23T08:57:13.647Z,21.00
2018-09-23T08:58:15.761Z,21.00
2018-09-23T08:59:18.281Z,21.00
2018-09-23T09:00:20.487Z,21.00
2018-09-23T09:01:22.649Z,20.90
2018-09-23T09:02:24.794Z,20.90
2018-09-23T09:03:26.918Z,20.80
2018-09-23T09:04:29.053Z,20.90
2018-09-23T09:05:31.222Z,20.90
2018-09-23T09:06:33.358Z,20.90
2018-09-23T09:07:35.692Z,20.80
2018-09-23T09:08:38.155Z,20.80
2018-09-23T09:09:40.282Z,20.80
2018-09-23T09:10:42.425Z,20.80
2018-09-23T09:11:44.636Z,20.80
2018-09-23T09:12:46.777Z,20.80
2018-09-23T09:13:49.166Z,20.80
2018-09-23T09:14:51.306Z,20.90
2018-09-23T09:15:53.428Z,20.90
2018-09-23T09:16:55.919Z,20.90
2018-09-23T09:17:58.079Z,20.90
2018-09-23T09:19:00.218Z,20.90
2018-09-23T09:20:02.366Z,21.00
2018-09-23T09:21:04.617Z,21.00
2018-09-23T09:22:06.781Z,21.00
2018-09-23T09:23:09.244Z,21.00
2018-09-23T09:24:11.385Z,21.00
2018-09-23T09:25:13.565Z,21.10
2018-09-23T09:26:15.719Z,21.00
2018-09-23T09:27:17.913Z,21.10
2018-09-23T09:28:20.059Z,21.10
2018-09-23T09:29:22.225Z,21.10
2018-09-23T09:30:24.387Z,21.20
2018-09-23T09:31:26.513Z,21.20
2018-09-23T09:32:28.666Z,21.30
2018-09-23T09:33:30.817Z,21.30
2018-09-23T09:34:32.966Z,21.40
2018-09-23T09:35:35.161Z,21.40
2018-09-23T09:36:37.302Z,21.40
2018-09-23T09:37:39.452Z,21.50
2018-09-23T09:38:41.626Z,21.50
2018-09-23T09:39:43.832Z,21.50
2018-09-23T09:40:45.992Z,21.50
2018-09-23T09:41:48.196Z,21.60
2018-09-23T09:42:50.383Z,21.60
2018-09-23T09:43:52.594Z,21.60
2018-09-23T09:44:54.731Z,21.70
2018-09-23T09:45:56.921Z,21.70
2018-09-23T09:46:59.085Z,21.80
2018-09-23T09:48:01.250Z,22.00
2018-09-23T09:49:03.438Z,21.90
2018-09-23T09:50:05.809Z,21.90
2018-09-23T09:51:07.941Z,22.00
2018-09-23T09:52:10.573Z,22.00
2018-09-23T09:53:12.717Z,22.00
2018-09-23T09:54:14.855Z,22.10
2018-09-23T09:55:17.043Z,22.00
2018-09-23T09:56:19.172Z,22.10
2018-09-23T09:57:21.387Z,22.10
2018-09-23T09:58:23.521Z,22.10
2018-09-23T09:59:25.897Z,22.10
2018-09-23T10:00:32.431Z,22.20
2018-09-23T10:01:34.598Z,22.20
2018-09-23T10:02:37.062Z,22.20
2018-09-23T10:03:39.255Z,22.30
2018-09-23T10:04:41.341Z,22.30
2018-09-23T10:05:43.470Z,22.30
2018-09-23T10:06:45.950Z,22.30
2018-09-23T10:07:49.096Z,22.30
2018-09-23T10:08:51.238Z,22.40
2018-09-23T10:09:53.651Z,22.40
2018-09-23T10:10:55.817Z,22.40
2018-09-23T10:11:58.265Z,22.50
2018-09-23T10:13:00.378Z,22.50
2018-09-23T10:14:02.546Z,22.50
2018-09-23T10:15:04.958Z,22.50
2018-09-23T10:16:07.578Z,22.60
2018-09-23T10:17:10.538Z,22.70
2018-09-23T10:18:12.677Z,22.70
2018-09-23T10:19:15.054Z,22.70
2018-09-23T10:20:17.193Z,22.70
2018-09-23T10:21:19.370Z,22.70
2018-09-23T10:22:21.526Z,22.70
2018-09-23T10:23:23.767Z,22.70
2018-09-23T10:24:25.803Z,22.70
2018-09-23T10:25:27.940Z,22.70
2018-09-23T10:26:30.065Z,22.70
2018-09-23T10:27:32.197Z,22.80
2018-09-23T10:28:34.355Z,22.80
2018-09-23T10:29:36.488Z,22.80
2018-09-23T10:30:38.614Z,22.80
2018-09-23T10:31:40.804Z,22.80
2018-09-23T10:32:42.881Z,22.90
2018-09-23T10:33:44.988Z,22.90
2018-09-23T10:34:47.129Z,23.00
2018-09-23T10:35:49.273Z,23.00
2018-09-23T10:36:51.437Z,23.00
2018-09-23T10:37:53.549Z,23.10
2018-09-23T10:38:55.715Z,23.10
2018-09-23T10:39:58.111Z,23.20
2018-09-23T10:41:00.418Z,23.20
2018-09-23T10:42:02.559Z,23.20
2018-09-23T10:43:04.711Z,23.20
2018-09-23T10:44:06.941Z,23.20
2018-09-23T10:45:09.113Z,23.30
2018-09-23T10:46:11.698Z,23.20
2018-09-23T10:47:13.856Z,23.20
2018-09-23T10:48:15.993Z,23.20
2018-09-23T10:49:18.181Z,23.20
2018-09-23T10:50:20.309Z,23.30
2018-09-23T10:51:22.482Z,23.30
2018-09-23T10:52:24.617Z,23.30
2018-09-23T10:53:26.965Z,23.30
2018-09-23T10:54:29.078Z,23.30
2018-09-23T10:55:31.230Z,23.40
2018-09-23T10:56:33.386Z,23.40
2018-09-23T10:57:35.517Z,23.40
2018-09-23T10:58:37.881Z,23.40
2018-09-23T10:59:40.115Z,23.40
2018-09-23T11:00:42.281Z,23.50
2018-09-23T11:01:44.461Z,23.50
2018-09-23T11:02:46.580Z,23.50
2018-09-23T11:03:49.324Z,23.50
2018-09-23T11:04:51.448Z,23.50
2018-09-23T11:05:53.599Z,23.50
2018-09-23T11:06:55.789Z,23.50
2018-09-23T11:07:57.939Z,23.50
2018-09-23T11:09:00.121Z,23.60
2018-09-23T11:10:02.252Z,23.60
2018-09-23T11:11:04.541Z,23.60
2018-09-23T11:12:06.678Z,23.70
2018-09-23T11:13:08.821Z,23.70
2018-09-23T11:14:10.942Z,23.80
2018-09-23T11:15:13.310Z,23.80
2018-09-23T11:16:15.451Z,23.90
2018-09-23T11:17:17.652Z,24.00
2018-09-23T11:18:20.038Z,24.10
2018-09-23T11:19:22.479Z,24.10
2018-09-23T11:20:24.921Z,24.10
2018-09-23T11:21:27.107Z,24.10
2018-09-23T11:22:29.267Z,24.10
2018-09-23T11:23:31.699Z,24.10
2018-09-23T11:24:33.838Z,24.30
2018-09-23T11:25:36.001Z,24.20
2018-09-23T11:26:38.154Z,24.20
2018-09-23T11:27:40.505Z,24.30
2018-09-23T11:28:42.649Z,24.40
2018-09-23T11:29:44.789Z,24.40
2018-09-23T11:30:46.947Z,24.40
2018-09-23T11:31:49.088Z,24.40
2018-09-23T11:32:51.568Z,24.50
2018-09-23T11:33:53.737Z,24.40
2018-09-23T11:34:55.876Z,24.40
2018-09-23T11:35:58.017Z,24.50
2018-09-23T11:37:00.401Z,24.40
2018-09-23T11:38:02.556Z,24.50
2018-09-23T11:39:07.581Z,24.40
2018-09-23T11:40:09.745Z,24.40
2018-09-23T11:41:11.877Z,24.40
2018-09-23T11:42:14.032Z,24.30
2018-09-23T11:43:16.505Z,24.30
2018-09-23T11:44:18.685Z,24.30
2018-09-23T11:45:21.142Z,24.40
2018-09-23T11:46:23.303Z,24.40
2018-09-23T11:47:25.493Z,24.40
2018-09-23T11:48:27.681Z,24.50
2018-09-23T11:49:29.847Z,24.50
2018-09-23T11:50:32.009Z,24.50
2018-09-23T11:51:34.206Z,24.50
2018-09-23T11:52:36.368Z,24.50
2018-09-23T11:53:38.501Z,24.50
2018-09-23T11:54:40.657Z,24.50
2018-09-23T11:55:42.789Z,24.60
2018-09-23T11:56:44.940Z,24.50
2018-09-23T11:57:47.107Z,24.60
2018-09-23T11:58:49.327Z,24.50
2018-09-23T11:59:51.697Z,24.60
2018-09-23T12:00:53.843Z,24.60
2018-09-23T12:01:57.864Z,24.70
2018-09-23T12:03:00.091Z,24.70
2018-09-23T12:04:02.249Z,24.70
2018-09-23T12:05:04.421Z,24.70
2018-09-23T12:06:06.586Z,24.70
2018-09-23T12:07:08.700Z,24.80
2018-09-23T12:08:11.288Z,24.70
2018-09-23T12:09:13.460Z,24.70
2018-09-23T12:10:15.931Z,24.70
2018-09-23T12:11:18.309Z,24.70
2018-09-23T12:12:20.542Z,24.70
2018-09-23T12:13:22.766Z,24.70
2018-09-23T12:14:24.985Z,24.70
2018-09-23T12:15:27.499Z,24.70
2018-09-23T12:16:29.610Z,24.80
2018-09-23T12:17:31.811Z,24.80
2018-09-23T12:18:34.231Z,24.80
2018-09-23T12:19:36.446Z,24.90
2018-09-23T12:20:38.589Z,24.90
2018-09-23T12:21:40.794Z,24.90
2018-09-23T12:22:42.941Z,24.80
2018-09-23T12:23:45.097Z,24.80
2018-09-23T12:24:47.265Z,24.80
2018-09-23T12:25:49.554Z,24.80
2018-09-23T12:26:51.664Z,24.70
2018-09-23T12:27:53.790Z,24.80
2018-09-23T12:28:55.993Z,24.80
2018-09-23T12:29:58.151Z,24.80
2018-09-23T12:31:00.306Z,24.80
2018-09-23T12:32:02.463Z,24.80
2018-09-23T12:33:05.003Z,24.80
2018-09-23T12:34:07.173Z,24.80
2018-09-23T12:35:09.293Z,24.80
2018-09-23T12:36:11.411Z,24.80
2018-09-23T12:37:13.574Z,24.70
2018-09-23T12:38:15.774Z,24.70
2018-09-23T12:39:17.906Z,24.80
2018-09-23T12:40:20.095Z,24.80
2018-09-23T12:41:22.562Z,24.90
2018-09-23T12:42:24.689Z,24.90
2018-09-23T12:43:26.878Z,24.90
2018-09-23T12:44:29.038Z,25.10
2018-09-23T12:45:31.181Z,25.10
2018-09-23T12:46:33.656Z,25.20
2018-09-23T12:47:35.833Z,25.20
2018-09-23T12:48:37.989Z,25.20
2018-09-23T12:49:40.129Z,25.20
2018-09-23T12:50:42.340Z,25.30
2018-09-23T12:51:44.496Z,25.30
2018-09-23T12:52:46.676Z,25.30
2018-09-23T12:53:49.085Z,25.30
2018-09-23T12:54:51.240Z,25.30
2018-09-23T12:55:53.388Z,25.20
2018-09-23T12:56:55.530Z,25.10
2018-09-23T12:57:57.662Z,25.10
2018-09-23T12:58:59.805Z,25.20
2018-09-23T13:00:01.950Z,25.20
2018-09-23T13:01:04.166Z,25.20
2018-09-23T13:02:06.622Z,25.20
2018-09-23T13:03:08.755Z,25.20
2018-09-23T13:04:10.918Z,25.20
2018-09-23T13:05:13.070Z,25.40
2018-09-23T13:06:15.202Z,25.40
2018-09-23T13:07:17.338Z,25.50
2018-09-23T13:08:19.473Z,25.60
2018-09-23T13:09:22.106Z,25.70
2018-09-23T13:10:24.297Z,25.70
2018-09-23T13:11:26.488Z,25.70
2018-09-23T13:12:28.743Z,25.70
2018-09-23T13:13:30.874Z,25.70
2018-09-23T13:14:33.037Z,25.70
2018-09-23T13:15:35.432Z,25.80
2018-09-23T13:16:37.578Z,25.80
2018-09-23T13:17:39.732Z,25.90
2018-09-23T13:19:46.204Z,25.80
2018-09-23T13:20:48.360Z,26.00
2018-09-23T13:21:50.805Z,26.00
2018-09-23T13:22:52.937Z,26.00